sensor_id;sensor_type;location;lat;lon;timestamp;P1;durP1;ratioP1;P2;durP2;ratioP2
51814;SDS011;37874;53.158;6.766;2023-03-26T00:01:26;8.07;;;2.88;;
51814;SDS011;37874;53.158;6.766;2023-03-26T00:03:53;8.57;;;2.58;;
51814;SDS011;37874;53.158;6.766;2023-03-26T00:06:21;6.65;;;2.63;;
51814;SDS011;37874;53.158;6.766;2023-03-26T00:08:52;8.90;;;2.58;;
51814;SDS011;37874;53.158;6.766;2023-03-26T00:11:20;7.97;;;2.58;;
51814;SDS011;37874;53.158;6.766;2023-03-26T00:13:47;7.03;;;3.15;;
51814;SDS011;37874;53.158;6.766;2023-03-26T00:16:14;7.60;;;2.33;;
51814;SDS011;37874;53.158;6.766;2023-03-26T00:18:41;6.78;;;2.35;;
51814;SDS011;37874;53.158;6.766;2023-03-26T00:21:09;6.43;;;2.20;;
51814;SDS011;37874;53.158;6.766;2023-03-26T00:23:37;7.93;;;2.60;;
51814;SDS011;37874;53.158;6.766;2023-03-26T00:26:03;6.43;;;2.40;;
51814;SDS011;37874;53.158;6.766;2023-03-26T00:28:35;5.35;;;2.10;;
51814;SDS011;37874;53.158;6.766;2023-03-26T00:31:02;6.25;;;1.90;;
51814;SDS011;37874;53.158;6.766;2023-03-26T00:33:29;6.07;;;2.30;;
51814;SDS011;37874;53.158;6.766;2023-03-26T00:35:56;6.88;;;2.22;;
51814;SDS011;37874;53.158;6.766;2023-03-26T00:38:25;7.60;;;2.33;;
51814;SDS011;37874;53.158;6.766;2023-03-26T00:40:52;6.75;;;2.30;;
51814;SDS011;37874;53.158;6.766;2023-03-26T00:43:19;6.53;;;2.25;;
51814;SDS011;37874;53.158;6.766;2023-03-26T00:45:46;5.45;;;1.98;;
51814;SDS011;37874;53.158;6.766;2023-03-26T00:48:18;7.20;;;2.53;;
51814;SDS011;37874;53.158;6.766;2023-03-26T00:50:47;5.57;;;2.00;;
51814;SDS011;37874;53.158;6.766;2023-03-26T00:53:16;6.45;;;2.10;;
51814;SDS011;37874;53.158;6.766;2023-03-26T00:55:44;5.65;;;2.08;;
51814;SDS011;37874;53.158;6.766;2023-03-26T00:58:11;5.97;;;2.00;;
51814;SDS011;37874;53.158;6.766;2023-03-26T01:00:41;7.53;;;1.80;;
51814;SDS011;37874;53.158;6.766;2023-03-26T01:03:27;5.93;;;2.10;;
51814;SDS011;37874;53.158;6.766;2023-03-26T01:05:58;5.80;;;1.85;;
51814;SDS011;37874;53.158;6.766;2023-03-26T01:08:44;5.93;;;2.00;;
51814;SDS011;37874;53.158;6.766;2023-03-26T01:11:12;7.88;;;2.25;;
51814;SDS011;37874;53.158;6.766;2023-03-26T01:13:49;7.97;;;2.38;;
51814;SDS011;37874;53.158;6.766;2023-03-26T01:16:20;7.10;;;2.20;;
51814;SDS011;37874;53.158;6.766;2023-03-26T01:21:22;6.22;;;1.88;;
51814;SDS011;37874;53.158;6.766;2023-03-26T01:28:50;6.43;;;1.80;;
51814;SDS011;37874;53.158;6.766;2023-03-26T01:31:28;5.93;;;1.80;;
51814;SDS011;37874;53.158;6.766;2023-03-26T01:34:24;5.97;;;1.75;;
51814;SDS011;37874;53.158;6.766;2023-03-26T01:37:06;5.55;;;1.55;;
51814;SDS011;37874;53.158;6.766;2023-03-26T01:39:41;6.00;;;1.87;;
51814;SDS011;37874;53.158;6.766;2023-03-26T01:42:36;5.68;;;1.90;;
51814;SDS011;37874;53.158;6.766;2023-03-26T01:45:12;5.00;;;1.63;;
51814;SDS011;37874;53.158;6.766;2023-03-26T01:47:43;5.60;;;1.90;;
51814;SDS011;37874;53.158;6.766;2023-03-26T01:50:10;5.78;;;1.70;;
51814;SDS011;37874;53.158;6.766;2023-03-26T01:52:36;5.55;;;2.00;;
51814;SDS011;37874;53.158;6.766;2023-03-26T01:55:02;5.63;;;1.80;;
51814;SDS011;37874;53.158;6.766;2023-03-26T01:57:33;5.95;;;1.77;;
51814;SDS011;37874;53.158;6.766;2023-03-26T02:05:39;4.95;;;1.35;;
51814;SDS011;37874;53.158;6.766;2023-03-26T02:08:10;5.82;;;1.95;;
51814;SDS011;37874;53.158;6.766;2023-03-26T02:10:45;5.22;;;1.75;;
51814;SDS011;37874;53.158;6.766;2023-03-26T02:13:13;5.38;;;1.58;;
51814;SDS011;37874;53.158;6.766;2023-03-26T02:15:39;5.35;;;1.50;;
51814;SDS011;37874;53.158;6.766;2023-03-26T02:18:05;5.68;;;2.00;;
51814;SDS011;37874;53.158;6.766;2023-03-26T02:20:35;7.32;;;2.10;;
51814;SDS011;37874;53.158;6.766;2023-03-26T02:23:01;6.20;;;2.03;;
51814;SDS011;37874;53.158;6.766;2023-03-26T02:25:26;5.38;;;1.70;;
51814;SDS011;37874;53.158;6.766;2023-03-26T02:27:52;3.50;;;1.48;;
51814;SDS011;37874;53.158;6.766;2023-03-26T02:30:20;4.80;;;1.50;;
51814;SDS011;37874;53.158;6.766;2023-03-26T02:32:51;5.57;;;1.80;;
51814;SDS011;37874;53.158;6.766;2023-03-26T02:35:18;6.28;;;1.83;;
51814;SDS011;37874;53.158;6.766;2023-03-26T02:37:46;5.13;;;1.70;;
51814;SDS011;37874;53.158;6.766;2023-03-26T02:40:14;5.70;;;1.80;;
51814;SDS011;37874;53.158;6.766;2023-03-26T02:42:41;5.53;;;1.77;;
51814;SDS011;37874;53.158;6.766;2023-03-26T02:45:07;5.18;;;1.70;;
51814;SDS011;37874;53.158;6.766;2023-03-26T02:47:33;5.38;;;1.60;;
51814;SDS011;37874;53.158;6.766;2023-03-26T02:49:58;8.13;;;2.28;;
51814;SDS011;37874;53.158;6.766;2023-03-26T02:52:25;4.85;;;1.50;;
51814;SDS011;37874;53.158;6.766;2023-03-26T02:54:51;8.07;;;1.90;;
51814;SDS011;37874;53.158;6.766;2023-03-26T02:57:17;5.57;;;1.48;;
51814;SDS011;37874;53.158;6.766;2023-03-26T02:59:43;5.10;;;1.90;;
51814;SDS011;37874;53.158;6.766;2023-03-26T03:02:10;7.35;;;1.90;;
51814;SDS011;37874;53.158;6.766;2023-03-26T03:04:37;5.93;;;1.52;;
51814;SDS011;37874;53.158;6.766;2023-03-26T03:07:03;4.90;;;1.50;;
51814;SDS011;37874;53.158;6.766;2023-03-26T03:09:29;5.60;;;1.55;;
51814;SDS011;37874;53.158;6.766;2023-03-26T03:11:55;4.88;;;1.25;;
51814;SDS011;37874;53.158;6.766;2023-03-26T03:14:20;5.60;;;1.60;;
51814;SDS011;37874;53.158;6.766;2023-03-26T03:16:46;6.90;;;1.67;;
51814;SDS011;37874;53.158;6.766;2023-03-26T03:19:12;3.78;;;1.40;;
51814;SDS011;37874;53.158;6.766;2023-03-26T03:21:38;4.25;;;1.55;;
51814;SDS011;37874;53.158;6.766;2023-03-26T03:24:04;5.35;;;1.48;;
51814;SDS011;37874;53.158;6.766;2023-03-26T03:26:30;4.90;;;1.52;;
51814;SDS011;37874;53.158;6.766;2023-03-26T03:28:58;3.92;;;1.40;;
51814;SDS011;37874;53.158;6.766;2023-03-26T03:31:24;4.45;;;1.58;;
51814;SDS011;37874;53.158;6.766;2023-03-26T03:33:51;5.05;;;1.52;;
51814;SDS011;37874;53.158;6.766;2023-03-26T03:36:17;4.90;;;1.50;;
51814;SDS011;37874;53.158;6.766;2023-03-26T03:38:51;3.83;;;1.42;;
51814;SDS011;37874;53.158;6.766;2023-03-26T03:41:17;3.97;;;1.20;;
51814;SDS011;37874;53.158;6.766;2023-03-26T03:43:43;4.32;;;1.63;;
51814;SDS011;37874;53.158;6.766;2023-03-26T03:46:09;4.80;;;1.55;;
51814;SDS011;37874;53.158;6.766;2023-03-26T03:48:35;5.50;;;1.70;;
51814;SDS011;37874;53.158;6.766;2023-03-26T03:51:03;7.05;;;1.70;;
51814;SDS011;37874;53.158;6.766;2023-03-26T03:53:30;4.70;;;1.50;;
51814;SDS011;37874;53.158;6.766;2023-03-26T03:55:56;4.38;;;1.45;;
51814;SDS011;37874;53.158;6.766;2023-03-26T03:58:22;3.95;;;1.10;;
51814;SDS011;37874;53.158;6.766;2023-03-26T04:00:52;4.95;;;1.33;;
51814;SDS011;37874;53.158;6.766;2023-03-26T04:03:25;5.25;;;1.52;;
51814;SDS011;37874;53.158;6.766;2023-03-26T04:05:54;4.60;;;1.42;;
51814;SDS011;37874;53.158;6.766;2023-03-26T04:08:21;4.00;;;1.40;;
51814;SDS011;37874;53.158;6.766;2023-03-26T04:10:48;3.72;;;1.45;;
51814;SDS011;37874;53.158;6.766;2023-03-26T04:13:14;3.60;;;1.33;;
51814;SDS011;37874;53.158;6.766;2023-03-26T04:15:41;5.28;;;1.58;;
51814;SDS011;37874;53.158;6.766;2023-03-26T04:18:08;3.58;;;1.30;;
51814;SDS011;37874;53.158;6.766;2023-03-26T04:20:37;3.90;;;1.30;;
51814;SDS011;37874;53.158;6.766;2023-03-26T04:23:06;3.85;;;1.17;;
51814;SDS011;37874;53.158;6.766;2023-03-26T04:25:32;6.03;;;1.58;;
51814;SDS011;37874;53.158;6.766;2023-03-26T04:28:00;3.45;;;1.30;;
51814;SDS011;37874;53.158;6.766;2023-03-26T04:30:30;4.60;;;1.30;;
51814;SDS011;37874;53.158;6.766;2023-03-26T04:32:57;3.33;;;1.08;;
51814;SDS011;37874;53.158;6.766;2023-03-26T04:35:33;4.10;;;1.20;;
51814;SDS011;37874;53.158;6.766;2023-03-26T04:38:00;3.90;;;1.27;;
51814;SDS011;37874;53.158;6.766;2023-03-26T04:40:30;4.70;;;1.30;;
51814;SDS011;37874;53.158;6.766;2023-03-26T04:42:58;4.88;;;1.40;;
51814;SDS011;37874;53.158;6.766;2023-03-26T04:45:26;4.82;;;1.63;;
51814;SDS011;37874;53.158;6.766;2023-03-26T04:47:54;4.30;;;1.27;;
51814;SDS011;37874;53.158;6.766;2023-03-26T04:50:22;2.25;;;1.10;;
51814;SDS011;37874;53.158;6.766;2023-03-26T04:52:48;4.28;;;1.20;;
51814;SDS011;37874;53.158;6.766;2023-03-26T04:55:37;4.30;;;1.45;;
51814;SDS011;37874;53.158;6.766;2023-03-26T04:58:13;3.80;;;1.10;;
51814;SDS011;37874;53.158;6.766;2023-03-26T05:00:39;4.30;;;1.20;;
51814;SDS011;37874;53.158;6.766;2023-03-26T05:03:08;3.50;;;1.17;;
51814;SDS011;37874;53.158;6.766;2023-03-26T05:05:35;4.20;;;1.20;;
51814;SDS011;37874;53.158;6.766;2023-03-26T05:08:02;6.15;;;1.35;;
51814;SDS011;37874;53.158;6.766;2023-03-26T05:10:27;3.78;;;1.20;;
51814;SDS011;37874;53.158;6.766;2023-03-26T05:12:53;3.80;;;1.10;;
51814;SDS011;37874;53.158;6.766;2023-03-26T05:15:18;3.83;;;1.20;;
51814;SDS011;37874;53.158;6.766;2023-03-26T05:17:44;3.08;;;1.10;;
51814;SDS011;37874;53.158;6.766;2023-03-26T05:20:26;3.67;;;1.17;;
51814;SDS011;37874;53.158;6.766;2023-03-26T05:22:54;3.47;;;1.10;;
51814;SDS011;37874;53.158;6.766;2023-03-26T05:25:20;2.72;;;0.90;;
51814;SDS011;37874;53.158;6.766;2023-03-26T05:27:46;3.75;;;1.20;;
51814;SDS011;37874;53.158;6.766;2023-03-26T05:30:12;3.83;;;1.02;;
51814;SDS011;37874;53.158;6.766;2023-03-26T05:32:40;3.53;;;0.98;;
51814;SDS011;37874;53.158;6.766;2023-03-26T05:35:06;3.22;;;0.95;;
51814;SDS011;37874;53.158;6.766;2023-03-26T05:37:32;3.38;;;1.05;;
51814;SDS011;37874;53.158;6.766;2023-03-26T05:39:58;3.63;;;1.10;;
51814;SDS011;37874;53.158;6.766;2023-03-26T05:42:24;3.97;;;1.10;;
51814;SDS011;37874;53.158;6.766;2023-03-26T05:44:50;2.47;;;1.00;;
51814;SDS011;37874;53.158;6.766;2023-03-26T05:47:16;3.33;;;1.10;;
51814;SDS011;37874;53.158;6.766;2023-03-26T05:49:41;4.03;;;1.10;;
51814;SDS011;37874;53.158;6.766;2023-03-26T05:52:07;3.47;;;1.10;;
51814;SDS011;37874;53.158;6.766;2023-03-26T05:54:33;3.33;;;1.25;;
51814;SDS011;37874;53.158;6.766;2023-03-26T05:56:58;2.88;;;1.13;;
51814;SDS011;37874;53.158;6.766;2023-03-26T05:59:24;4.03;;;1.15;;
51814;SDS011;37874;53.158;6.766;2023-03-26T06:01:50;4.70;;;1.33;;
51814;SDS011;37874;53.158;6.766;2023-03-26T06:04:18;3.22;;;1.20;;
51814;SDS011;37874;53.158;6.766;2023-03-26T06:06:44;3.40;;;1.25;;
51814;SDS011;37874;53.158;6.766;2023-03-26T06:09:10;6.07;;;1.33;;
51814;SDS011;37874;53.158;6.766;2023-03-26T06:11:38;3.58;;;1.10;;
51814;SDS011;37874;53.158;6.766;2023-03-26T06:14:05;3.60;;;0.95;;
51814;SDS011;37874;53.158;6.766;2023-03-26T06:16:31;3.08;;;1.10;;
51814;SDS011;37874;53.158;6.766;2023-03-26T06:18:57;3.20;;;1.00;;
51814;SDS011;37874;53.158;6.766;2023-03-26T06:21:26;2.63;;;0.80;;
51814;SDS011;37874;53.158;6.766;2023-03-26T06:23:53;4.68;;;1.10;;
51814;SDS011;37874;53.158;6.766;2023-03-26T06:26:19;4.07;;;1.42;;
51814;SDS011;37874;53.158;6.766;2023-03-26T06:28:45;3.72;;;1.20;;
51814;SDS011;37874;53.158;6.766;2023-03-26T06:31:11;5.00;;;1.23;;
51814;SDS011;37874;53.158;6.766;2023-03-26T06:33:37;3.42;;;0.82;;
51814;SDS011;37874;53.158;6.766;2023-03-26T06:36:03;3.45;;;0.82;;
51814;SDS011;37874;53.158;6.766;2023-03-26T06:38:28;2.58;;;0.90;;
51814;SDS011;37874;53.158;6.766;2023-03-26T06:41:00;3.42;;;1.08;;
51814;SDS011;37874;53.158;6.766;2023-03-26T06:43:27;3.40;;;1.00;;
51814;SDS011;37874;53.158;6.766;2023-03-26T06:45:53;5.50;;;1.23;;
51814;SDS011;37874;53.158;6.766;2023-03-26T06:48:18;3.05;;;1.05;;
51814;SDS011;37874;53.158;6.766;2023-03-26T06:50:44;3.22;;;0.98;;
51814;SDS011;37874;53.158;6.766;2023-03-26T06:53:10;2.63;;;0.85;;
51814;SDS011;37874;53.158;6.766;2023-03-26T06:55:36;3.15;;;1.00;;
51814;SDS011;37874;53.158;6.766;2023-03-26T06:58:02;2.80;;;0.85;;
51814;SDS011;37874;53.158;6.766;2023-03-26T07:00:27;4.45;;;1.17;;
51814;SDS011;37874;53.158;6.766;2023-03-26T07:02:53;3.28;;;1.17;;
51814;SDS011;37874;53.158;6.766;2023-03-26T07:05:19;3.15;;;1.10;;
51814;SDS011;37874;53.158;6.766;2023-03-26T07:07:44;3.70;;;1.10;;
51814;SDS011;37874;53.158;6.766;2023-03-26T07:10:11;5.50;;;1.48;;
51814;SDS011;37874;53.158;6.766;2023-03-26T07:12:37;3.38;;;0.98;;
51814;SDS011;37874;53.158;6.766;2023-03-26T07:15:02;2.30;;;0.90;;
51814;SDS011;37874;53.158;6.766;2023-03-26T07:17:29;5.47;;;1.95;;
51814;SDS011;37874;53.158;6.766;2023-03-26T07:19:55;3.85;;;1.00;;
51814;SDS011;37874;53.158;6.766;2023-03-26T07:22:22;3.08;;;0.85;;
51814;SDS011;37874;53.158;6.766;2023-03-26T07:24:49;3.20;;;1.00;;
51814;SDS011;37874;53.158;6.766;2023-03-26T09:33:55;4.15;;;1.10;;
51814;SDS011;37874;53.158;6.766;2023-03-26T09:36:53;5.28;;;1.10;;
51814;SDS011;37874;53.158;6.766;2023-03-26T09:42:34;2.80;;;0.90;;
51814;SDS011;37874;53.158;6.766;2023-03-26T09:45:02;3.50;;;0.93;;
51814;SDS011;37874;53.158;6.766;2023-03-26T09:48:04;3.90;;;1.00;;
51814;SDS011;37874;53.158;6.766;2023-03-26T10:07:28;4.80;;;1.25;;
51814;SDS011;37874;53.158;6.766;2023-03-26T10:16:00;3.13;;;0.90;;
51814;SDS011;37874;53.158;6.766;2023-03-26T10:27:30;3.28;;;1.10;;
51814;SDS011;37874;53.158;6.766;2023-03-26T10:36:01;3.13;;;0.93;;
51814;SDS011;37874;53.158;6.766;2023-03-26T10:49:54;3.05;;;0.95;;
51814;SDS011;37874;53.158;6.766;2023-03-26T10:52:50;3.38;;;1.13;;
51814;SDS011;37874;53.158;6.766;2023-03-26T10:55:27;4.43;;;1.13;;
51814;SDS011;37874;53.158;6.766;2023-03-26T10:57:59;4.82;;;1.30;;
51814;SDS011;37874;53.158;6.766;2023-03-26T11:00:48;4.22;;;1.17;;
51814;SDS011;37874;53.158;6.766;2023-03-26T11:03:28;4.35;;;1.17;;
51814;SDS011;37874;53.158;6.766;2023-03-26T11:06:22;4.35;;;1.30;;
51814;SDS011;37874;53.158;6.766;2023-03-26T11:09:15;4.00;;;1.05;;
51814;SDS011;37874;53.158;6.766;2023-03-26T11:12:19;4.10;;;1.10;;
51814;SDS011;37874;53.158;6.766;2023-03-26T11:20:01;3.58;;;1.10;;
51814;SDS011;37874;53.158;6.766;2023-03-26T11:22:51;4.20;;;1.10;;
51814;SDS011;37874;53.158;6.766;2023-03-26T11:30:47;3.67;;;1.00;;
51814;SDS011;37874;53.158;6.766;2023-03-26T11:33:17;3.38;;;1.13;;
51814;SDS011;37874;53.158;6.766;2023-03-26T11:36:02;5.35;;;1.40;;
51814;SDS011;37874;53.158;6.766;2023-03-26T11:41:02;3.45;;;1.10;;
51814;SDS011;37874;53.158;6.766;2023-03-26T11:43:35;3.17;;;0.93;;
51814;SDS011;37874;53.158;6.766;2023-03-26T11:46:05;4.53;;;1.40;;
51814;SDS011;37874;53.158;6.766;2023-03-26T11:48:42;4.17;;;1.10;;
51814;SDS011;37874;53.158;6.766;2023-03-26T11:51:21;3.90;;;0.98;;
51814;SDS011;37874;53.158;6.766;2023-03-26T11:53:59;4.88;;;1.25;;
51814;SDS011;37874;53.158;6.766;2023-03-26T12:04:35;4.80;;;1.38;;
51814;SDS011;37874;53.158;6.766;2023-03-26T12:09:57;3.03;;;0.90;;
51814;SDS011;37874;53.158;6.766;2023-03-26T12:12:25;3.80;;;0.80;;
51814;SDS011;37874;53.158;6.766;2023-03-26T12:14:54;3.78;;;1.13;;
51814;SDS011;37874;53.158;6.766;2023-03-26T12:30:36;4.40;;;0.85;;
51814;SDS011;37874;53.158;6.766;2023-03-26T12:33:14;2.63;;;0.90;;
51814;SDS011;37874;53.158;6.766;2023-03-26T12:35:43;4.35;;;1.10;;
51814;SDS011;37874;53.158;6.766;2023-03-26T12:38:21;4.75;;;1.05;;
51814;SDS011;37874;53.158;6.766;2023-03-26T12:41:04;3.75;;;0.95;;
51814;SDS011;37874;53.158;6.766;2023-03-26T12:43:42;4.03;;;0.98;;
51814;SDS011;37874;53.158;6.766;2023-03-26T12:46:19;5.38;;;1.05;;
51814;SDS011;37874;53.158;6.766;2023-03-26T12:48:53;4.45;;;0.90;;
51814;SDS011;37874;53.158;6.766;2023-03-26T12:57:03;3.67;;;1.00;;
51814;SDS011;37874;53.158;6.766;2023-03-26T13:00:04;3.95;;;1.20;;
51814;SDS011;37874;53.158;6.766;2023-03-26T13:03:27;3.60;;;0.90;;
51814;SDS011;37874;53.158;6.766;2023-03-26T13:05:40;4.22;;;1.00;;
51814;SDS011;37874;53.158;6.766;2023-03-26T13:16:39;5.95;;;1.20;;
51814;SDS011;37874;53.158;6.766;2023-03-26T13:19:24;4.72;;;1.23;;
51814;SDS011;37874;53.158;6.766;2023-03-26T13:22:22;3.42;;;0.95;;
51814;SDS011;37874;53.158;6.766;2023-03-26T13:39:16;3.50;;;1.10;;
51814;SDS011;37874;53.158;6.766;2023-03-26T13:42:06;4.22;;;0.95;;
51814;SDS011;37874;53.158;6.766;2023-03-26T13:47:35;3.38;;;0.80;;
51814;SDS011;37874;53.158;6.766;2023-03-26T13:50:06;3.92;;;1.08;;
51814;SDS011;37874;53.158;6.766;2023-03-26T13:58:01;4.68;;;1.00;;
51814;SDS011;37874;53.158;6.766;2023-03-26T14:00:45;4.25;;;1.00;;
51814;SDS011;37874;53.158;6.766;2023-03-26T14:03:29;2.95;;;0.98;;
51814;SDS011;37874;53.158;6.766;2023-03-26T14:06:06;4.40;;;1.25;;
51814;SDS011;37874;53.158;6.766;2023-03-26T14:09:10;2.55;;;0.80;;
51814;SDS011;37874;53.158;6.766;2023-03-26T14:14:34;3.65;;;1.00;;
51814;SDS011;37874;53.158;6.766;2023-03-26T14:22:54;3.50;;;0.90;;
51814;SDS011;37874;53.158;6.766;2023-03-26T14:30:50;2.83;;;0.70;;
51814;SDS011;37874;53.158;6.766;2023-03-26T14:33:36;3.45;;;0.90;;
51814;SDS011;37874;53.158;6.766;2023-03-26T14:44:20;3.67;;;0.80;;
51814;SDS011;37874;53.158;6.766;2023-03-26T14:52:12;4.40;;;1.05;;
51814;SDS011;37874;53.158;6.766;2023-03-26T14:54:45;2.92;;;0.82;;
51814;SDS011;37874;53.158;6.766;2023-03-26T14:57:21;3.33;;;1.05;;
51814;SDS011;37874;53.158;6.766;2023-03-26T15:05:46;4.28;;;0.93;;
51814;SDS011;37874;53.158;6.766;2023-03-26T15:17:16;5.70;;;1.23;;
51814;SDS011;37874;53.158;6.766;2023-03-26T15:40:06;8.60;;;1.40;;
51814;SDS011;37874;53.158;6.766;2023-03-26T15:45:36;6.90;;;1.38;;
51814;SDS011;37874;53.158;6.766;2023-03-26T15:53:33;5.57;;;1.52;;
51814;SDS011;37874;53.158;6.766;2023-03-26T15:56:08;4.28;;;1.20;;
51814;SDS011;37874;53.158;6.766;2023-03-26T15:59:13;5.60;;;1.08;;
51814;SDS011;37874;53.158;6.766;2023-03-26T16:02:07;3.25;;;1.15;;
51814;SDS011;37874;53.158;6.766;2023-03-26T16:04:59;9.15;;;1.38;;
51814;SDS011;37874;53.158;6.766;2023-03-26T16:10:38;4.57;;;1.20;;
51814;SDS011;37874;53.158;6.766;2023-03-26T16:29:15;5.50;;;1.38;;
51814;SDS011;37874;53.158;6.766;2023-03-26T16:34:41;3.63;;;1.00;;
51814;SDS011;37874;53.158;6.766;2023-03-26T16:42:45;5.00;;;1.25;;
51814;SDS011;37874;53.158;6.766;2023-03-26T16:45:38;5.18;;;1.30;;
51814;SDS011;37874;53.158;6.766;2023-03-26T16:48:16;4.03;;;0.90;;
51814;SDS011;37874;53.158;6.766;2023-03-26T16:53:55;5.70;;;1.17;;
51814;SDS011;37874;53.158;6.766;2023-03-26T17:01:34;4.22;;;1.23;;
51814;SDS011;37874;53.158;6.766;2023-03-26T17:22:46;4.28;;;1.20;;
51814;SDS011;37874;53.158;6.766;2023-03-26T17:25:21;4.22;;;0.82;;
51814;SDS011;37874;53.158;6.766;2023-03-26T17:33:20;4.72;;;1.20;;
51814;SDS011;37874;53.158;6.766;2023-03-26T17:41:03;5.53;;;1.20;;
51814;SDS011;37874;53.158;6.766;2023-03-26T17:43:37;5.55;;;1.65;;
51814;SDS011;37874;53.158;6.766;2023-03-26T17:46:17;6.80;;;1.73;;
51814;SDS011;37874;53.158;6.766;2023-03-26T17:51:55;4.72;;;1.80;;
51814;SDS011;37874;53.158;6.766;2023-03-26T17:54:44;5.25;;;1.73;;
51814;SDS011;37874;53.158;6.766;2023-03-26T17:57:31;5.10;;;1.83;;
51814;SDS011;37874;53.158;6.766;2023-03-26T18:00:06;5.32;;;2.03;;
51814;SDS011;37874;53.158;6.766;2023-03-26T18:02:40;6.78;;;1.50;;
51814;SDS011;37874;53.158;6.766;2023-03-26T18:05:14;5.85;;;1.90;;
51814;SDS011;37874;53.158;6.766;2023-03-26T18:08:01;5.00;;;1.77;;
51814;SDS011;37874;53.158;6.766;2023-03-26T18:16:05;7.45;;;2.25;;
51814;SDS011;37874;53.158;6.766;2023-03-26T18:18:52;6.97;;;1.75;;
51814;SDS011;37874;53.158;6.766;2023-03-26T18:23:56;5.60;;;2.13;;
51814;SDS011;37874;53.158;6.766;2023-03-26T18:26:34;7.28;;;2.08;;
51814;SDS011;37874;53.158;6.766;2023-03-26T18:31:55;6.70;;;2.20;;
51814;SDS011;37874;53.158;6.766;2023-03-26T18:34:25;6.53;;;2.13;;
51814;SDS011;37874;53.158;6.766;2023-03-26T18:39:35;7.60;;;1.77;;
51814;SDS011;37874;53.158;6.766;2023-03-26T18:42:02;5.65;;;1.95;;
51814;SDS011;37874;53.158;6.766;2023-03-26T18:44:28;5.18;;;1.90;;
51814;SDS011;37874;53.158;6.766;2023-03-26T18:47:03;6.93;;;1.90;;
51814;SDS011;37874;53.158;6.766;2023-03-26T18:49:30;4.68;;;1.65;;
51814;SDS011;37874;53.158;6.766;2023-03-26T18:51:55;5.88;;;2.03;;
51814;SDS011;37874;53.158;6.766;2023-03-26T18:54:22;6.80;;;1.90;;
51814;SDS011;37874;53.158;6.766;2023-03-26T18:56:48;5.40;;;1.70;;
51814;SDS011;37874;53.158;6.766;2023-03-26T18:59:21;5.78;;;1.98;;
51814;SDS011;37874;53.158;6.766;2023-03-26T19:01:55;7.72;;;1.83;;
51814;SDS011;37874;53.158;6.766;2023-03-26T19:04:23;5.80;;;1.80;;
51814;SDS011;37874;53.158;6.766;2023-03-26T19:06:50;5.13;;;1.77;;
51814;SDS011;37874;53.158;6.766;2023-03-26T19:09:22;5.00;;;1.63;;
51814;SDS011;37874;53.158;6.766;2023-03-26T19:11:49;4.72;;;1.58;;
51814;SDS011;37874;53.158;6.766;2023-03-26T19:14:21;4.60;;;1.65;;
51814;SDS011;37874;53.158;6.766;2023-03-26T19:16:52;5.60;;;1.83;;
51814;SDS011;37874;53.158;6.766;2023-03-26T19:19:24;6.35;;;1.95;;
51814;SDS011;37874;53.158;6.766;2023-03-26T19:21:54;4.95;;;1.50;;
51814;SDS011;37874;53.158;6.766;2023-03-26T19:24:20;4.80;;;1.35;;
51814;SDS011;37874;53.158;6.766;2023-03-26T19:26:47;5.25;;;1.50;;
51814;SDS011;37874;53.158;6.766;2023-03-26T19:29:17;6.20;;;1.70;;
51814;SDS011;37874;53.158;6.766;2023-03-26T19:31:49;6.45;;;1.73;;
51814;SDS011;37874;53.158;6.766;2023-03-26T19:36:57;6.47;;;1.80;;
51814;SDS011;37874;53.158;6.766;2023-03-26T19:39:41;4.28;;;1.20;;
51814;SDS011;37874;53.158;6.766;2023-03-26T19:42:13;4.43;;;1.30;;
51814;SDS011;37874;53.158;6.766;2023-03-26T19:44:50;4.03;;;1.48;;
51814;SDS011;37874;53.158;6.766;2023-03-26T19:47:21;5.50;;;1.73;;
51814;SDS011;37874;53.158;6.766;2023-03-26T19:49:58;5.30;;;1.27;;
51814;SDS011;37874;53.158;6.766;2023-03-26T19:55:18;5.05;;;1.40;;
51814;SDS011;37874;53.158;6.766;2023-03-26T19:57:46;3.45;;;1.20;;
51814;SDS011;37874;53.158;6.766;2023-03-26T20:00:13;4.25;;;1.10;;
51814;SDS011;37874;53.158;6.766;2023-03-26T20:02:42;4.40;;;1.33;;
51814;SDS011;37874;53.158;6.766;2023-03-26T20:07:50;3.85;;;1.13;;
51814;SDS011;37874;53.158;6.766;2023-03-26T20:10:16;5.68;;;1.38;;
51814;SDS011;37874;53.158;6.766;2023-03-26T20:12:42;4.05;;;1.27;;
51814;SDS011;37874;53.158;6.766;2023-03-26T20:15:11;4.78;;;1.20;;
51814;SDS011;37874;53.158;6.766;2023-03-26T20:17:45;4.72;;;1.35;;
51814;SDS011;37874;53.158;6.766;2023-03-26T20:20:14;3.50;;;1.10;;
51814;SDS011;37874;53.158;6.766;2023-03-26T20:22:40;4.35;;;1.40;;
51814;SDS011;37874;53.158;6.766;2023-03-26T20:25:10;4.88;;;1.30;;
51814;SDS011;37874;53.158;6.766;2023-03-26T20:30:40;3.17;;;1.10;;
51814;SDS011;37874;53.158;6.766;2023-03-26T20:33:08;4.60;;;1.30;;
51814;SDS011;37874;53.158;6.766;2023-03-26T20:35:41;2.65;;;0.98;;
51814;SDS011;37874;53.158;6.766;2023-03-26T20:38:07;4.28;;;1.08;;
51814;SDS011;37874;53.158;6.766;2023-03-26T20:40:34;6.00;;;1.20;;
51814;SDS011;37874;53.158;6.766;2023-03-26T20:42:59;3.17;;;1.00;;
51814;SDS011;37874;53.158;6.766;2023-03-26T20:45:25;6.70;;;1.17;;
51814;SDS011;37874;53.158;6.766;2023-03-26T20:47:51;3.92;;;0.98;;
51814;SDS011;37874;53.158;6.766;2023-03-26T20:50:19;2.75;;;0.98;;
51814;SDS011;37874;53.158;6.766;2023-03-26T20:52:47;7.15;;;1.20;;
51814;SDS011;37874;53.158;6.766;2023-03-26T20:55:15;10.50;;;1.20;;
51814;SDS011;37874;53.158;6.766;2023-03-26T20:57:45;8.18;;;0.98;;
51814;SDS011;37874;53.158;6.766;2023-03-26T21:00:11;6.13;;;1.10;;
51814;SDS011;37874;53.158;6.766;2023-03-26T21:02:43;8.93;;;1.30;;
51814;SDS011;37874;53.158;6.766;2023-03-26T21:05:10;4.18;;;1.23;;
51814;SDS011;37874;53.158;6.766;2023-03-26T21:07:42;8.82;;;1.35;;
51814;SDS011;37874;53.158;6.766;2023-03-26T21:10:12;8.80;;;1.10;;
51814;SDS011;37874;53.158;6.766;2023-03-26T21:12:51;5.72;;;1.20;;
51814;SDS011;37874;53.158;6.766;2023-03-26T21:15:21;4.53;;;1.08;;
51814;SDS011;37874;53.158;6.766;2023-03-26T23:18:58;5.18;;;1.08;;
51814;SDS011;37874;53.158;6.766;2023-03-26T23:21:24;3.30;;;1.00;;
51814;SDS011;37874;53.158;6.766;2023-03-26T23:23:49;2.55;;;0.82;;
51814;SDS011;37874;53.158;6.766;2023-03-26T23:26:18;3.15;;;0.90;;
51814;SDS011;37874;53.158;6.766;2023-03-26T23:28:44;3.33;;;1.10;;
51814;SDS011;37874;53.158;6.766;2023-03-26T23:31:10;2.45;;;0.80;;
51814;SDS011;37874;53.158;6.766;2023-03-26T23:33:37;5.00;;;0.90;;
51814;SDS011;37874;53.158;6.766;2023-03-26T23:36:04;3.08;;;0.80;;
51814;SDS011;37874;53.158;6.766;2023-03-26T23:38:33;2.00;;;0.73;;
51814;SDS011;37874;53.158;6.766;2023-03-26T23:41:00;2.00;;;0.60;;
51814;SDS011;37874;53.158;6.766;2023-03-26T23:43:26;3.88;;;1.00;;
51814;SDS011;37874;53.158;6.766;2023-03-26T23:45:52;2.15;;;0.65;;
51814;SDS011;37874;53.158;6.766;2023-03-26T23:48:19;3.30;;;0.68;;
51814;SDS011;37874;53.158;6.766;2023-03-26T23:50:53;3.17;;;0.98;;
51814;SDS011;37874;53.158;6.766;2023-03-26T23:53:20;2.78;;;0.90;;
51814;SDS011;37874;53.158;6.766;2023-03-26T23:55:48;2.50;;;0.73;;
51814;SDS011;37874;53.158;6.766;2023-03-26T23:58:15;3.40;;;0.93;;
